Time;durP1;ratioP1;P1;durP2;ratioP2;P2;SDS_P1;SDS_P2;PMS_P1;PMS_P2;Temp;Humidity;BMP_temperature;BMP_pressure;BME280_temperature;BME280_humidity;BME280_pressure;Samples;Min_cycle;Max_cycle;Signal;HPM_P1;HPM_P2
2021/12/03 00:01:29;;;;;;;29.05;16.45;;;;;;;;;;5012435;28;20518;-60
2021/12/03 00:03:55;;;;;;;25.92;12.85;;;;;;;;;;4664500;28;9999847;-63
2021/12/03 00:06:21;;;;;;;28.63;15.13;;;;;;;;;;5008786;28;20042;-58
2021/12/03 00:08:47;;;;;;;28.58;16.23;;;;;;;;;;5009053;28;20030;-65
2021/12/03 00:11:14;;;;;;;30.55;17.42;;;;;;;;;;5007858;28;20073;-61
2021/12/03 00:13:40;;;;;;;34.78;19.88;;;;;;;;;;5007275;28;20409;-61
2021/12/03 00:16:06;;;;;;;33.38;17.13;;;;;;;;;;5009037;28;20038;-59
2021/12/03 00:18:32;;;;;;;42.00;21.50;;;;;;;;;;5008943;28;20545;-61
2021/12/03 00:21:02;;;;;;;28.38;13.27;;;;;;;;;;5009030;28;20409;-61
2021/12/03 00:23:28;;;;;;;38.40;20.75;;;;;;;;;;5007152;28;20112;-61
2021/12/03 00:25:54;;;;;;;32.55;17.17;;;;;;;;;;5008557;28;20025;-65
2021/12/03 00:28:20;;;;;;;39.53;22.08;;;;;;;;;;5008678;28;20022;-61
2021/12/03 00:30:47;;;;;;;47.78;21.42;;;;;;;;;;5009731;28;20037;-61
2021/12/03 00:33:13;;;;;;;39.85;22.67;;;;;;;;;;5010976;28;20040;-57
2021/12/03 00:35:40;;;;;;;43.95;23.60;;;;;;;;;;5038880;22;20041;-66
2021/12/03 00:38:06;;;;;;;43.95;23.42;;;;;;;;;;5053083;28;20029;-64
2021/12/03 00:40:35;;;;;;;53.30;23.95;;;;;;;;;;5051470;28;20028;-64
2021/12/03 00:43:01;;;;;;;42.45;21.23;;;;;;;;;;5051602;28;20079;-64
2021/12/03 00:45:29;;;;;;;42.65;20.45;;;;;;;;;;5051236;28;20033;-64
2021/12/03 00:47:55;;;;;;;43.17;23.25;;;;;;;;;;5053035;28;20018;-64
2021/12/03 00:50:23;;;;;;;47.70;21.73;;;;;;;;;;5052439;28;20100;-63
2021/12/03 00:52:49;;;;;;;45.83;23.20;;;;;;;;;;5053321;28;20105;-64
2021/12/03 00:55:16;;;;;;;55.08;24.90;;;;;;;;;;5052575;28;20473;-64
2021/12/03 00:57:42;;;;;;;45.92;24.30;;;;;;;;;;5051223;28;20021;-64
2021/12/03 01:00:11;;;;;;;47.05;24.15;;;;;;;;;;5050811;28;20025;-64
2021/12/03 01:02:37;;;;;;;50.13;24.77;;;;;;;;;;5052318;28;20100;-64
2021/12/03 01:05:04;;;;;;;43.65;21.73;;;;;;;;;;5051106;28;20028;-65
2021/12/03 01:07:31;;;;;;;50.10;24.23;;;;;;;;;;5051157;28;20485;-63
2021/12/03 01:09:57;;;;;;;58.00;25.25;;;;;;;;;;5051154;28;20469;-63
2021/12/03 01:12:23;;;;;;;53.90;22.92;;;;;;;;;;5050958;28;20543;-63
2021/12/03 01:14:49;;;;;;;48.35;23.85;;;;;;;;;;5052403;28;20021;-63
2021/12/03 01:17:15;;;;;;;43.60;22.55;;;;;;;;;;5051427;28;20025;-63
2021/12/03 01:19:42;;;;;;;49.83;24.10;;;;;;;;;;5052591;28;20084;-63
2021/12/03 01:22:08;;;;;;;43.88;19.77;;;;;;;;;;5050894;28;20112;-64
2021/12/03 01:24:34;;;;;;;45.83;24.48;;;;;;;;;;5050929;28;20516;-64
2021/12/03 01:27:00;;;;;;;50.38;26.40;;;;;;;;;;5051056;28;20048;-63
2021/12/03 01:29:26;;;;;;;45.00;24.20;;;;;;;;;;5051519;28;20017;-63
2021/12/03 01:31:54;;;;;;;49.42;25.30;;;;;;;;;;5052230;28;20090;-64
2021/12/03 01:34:20;;;;;;;24.15;14.00;;;;;;;;;;5052517;28;20025;-63
2021/12/03 01:36:46;;;;;;;49.53;19.17;;;;;;;;;;5052332;28;20078;-63
2021/12/03 01:39:13;;;;;;;44.17;22.30;;;;;;;;;;5051986;28;20029;-63
2021/12/03 01:41:40;;;;;;;45.83;25.48;;;;;;;;;;5050682;28;20488;-63
2021/12/03 01:44:06;;;;;;;48.67;24.00;;;;;;;;;;5051940;28;20029;-63
2021/12/03 01:46:32;;;;;;;42.85;25.25;;;;;;;;;;5051937;28;20131;-63
2021/12/03 01:48:59;;;;;;;48.70;27.45;;;;;;;;;;5052036;28;20036;-63
2021/12/03 01:51:26;;;;;;;50.33;28.67;;;;;;;;;;5050619;28;20029;-63
2021/12/03 01:53:53;;;;;;;53.80;30.48;;;;;;;;;;5051768;28;20029;-62
2021/12/03 01:56:20;;;;;;;56.13;30.08;;;;;;;;;;5050866;28;20028;-63
2021/12/03 01:58:47;;;;;;;58.03;31.40;;;;;;;;;;5050730;28;20120;-63
2021/12/03 02:01:14;;;;;;;46.67;26.92;;;;;;;;;;5051642;28;20416;-64
2021/12/03 02:03:42;;;;;;;56.58;30.42;;;;;;;;;;5050445;28;20041;-64
2021/12/03 02:06:09;;;;;;;67.88;34.50;;;;;;;;;;5050477;28;20079;-63
2021/12/03 02:08:35;;;;;;;63.55;35.85;;;;;;;;;;5050943;28;20428;-65
2021/12/03 02:11:02;;;;;;;62.47;33.42;;;;;;;;;;5050615;28;20151;-63
2021/12/03 02:13:28;;;;;;;53.03;27.35;;;;;;;;;;5050478;28;20024;-64
2021/12/03 02:15:54;;;;;;;64.10;31.27;;;;;;;;;;5050506;28;20082;-64
2021/12/03 02:18:20;;;;;;;52.95;28.88;;;;;;;;;;5050431;28;20094;-64
2021/12/03 02:20:47;;;;;;;68.47;33.90;;;;;;;;;;5050612;28;20029;-64
2021/12/03 02:23:14;;;;;;;64.85;34.72;;;;;;;;;;5050262;28;20029;-63
2021/12/03 02:25:42;;;;;;;61.70;28.42;;;;;;;;;;5050431;28;20659;-63
2021/12/03 02:28:08;;;;;;;58.78;29.50;;;;;;;;;;5051636;28;20071;-63
2021/12/03 02:30:34;;;;;;;67.95;32.22;;;;;;;;;;5055289;28;20079;-63
2021/12/03 02:33:00;;;;;;;67.40;31.92;;;;;;;;;;5053738;28;20497;-63
2021/12/03 02:35:26;;;;;;;64.65;29.15;;;;;;;;;;5053778;28;20072;-62
2021/12/03 02:37:53;;;;;;;72.75;32.33;;;;;;;;;;5055218;28;20071;-63
2021/12/03 02:40:20;;;;;;;71.18;35.78;;;;;;;;;;5054345;28;20030;-63
2021/12/03 02:42:46;;;;;;;83.68;38.42;;;;;;;;;;5054046;28;20036;-64
2021/12/03 02:45:14;;;;;;;84.18;36.35;;;;;;;;;;5053746;28;20025;-63
2021/12/03 02:47:40;;;;;;;87.82;40.28;;;;;;;;;;5054871;28;20033;-63
2021/12/03 02:50:07;;;;;;;80.55;40.35;;;;;;;;;;5053696;28;20091;-62
2021/12/03 02:52:33;;;;;;;79.00;37.35;;;;;;;;;;5053264;28;20021;-63
2021/12/03 02:54:59;;;;;;;90.72;39.30;;;;;;;;;;5053526;28;20031;-63
2021/12/03 02:57:25;;;;;;;83.25;41.72;;;;;;;;;;5053408;28;20052;-63
2021/12/03 02:59:51;;;;;;;75.55;34.92;;;;;;;;;;5053039;28;20032;-63
2021/12/03 03:02:17;;;;;;;92.28;40.33;;;;;;;;;;5054265;28;20024;-63
2021/12/03 03:04:43;;;;;;;90.47;46.08;;;;;;;;;;5053230;28;20485;-64
2021/12/03 03:07:09;;;;;;;86.65;42.88;;;;;;;;;;5053194;28;20028;-63
2021/12/03 03:09:35;;;;;;;80.18;36.58;;;;;;;;;;5053214;28;20021;-64
2021/12/03 03:12:01;;;;;;;66.80;31.67;;;;;;;;;;5052895;28;20043;-63
2021/12/03 03:14:27;;;;;;;94.22;44.28;;;;;;;;;;5054323;28;20045;-63
2021/12/03 03:16:54;;;;;;;96.35;46.10;;;;;;;;;;5053124;28;20399;-63
2021/12/03 03:19:21;;;;;;;73.53;36.75;;;;;;;;;;5054576;28;20025;-63
2021/12/03 03:21:47;;;;;;;96.03;45.97;;;;;;;;;;5053979;28;20481;-62
2021/12/03 03:24:14;;;;;;;60.65;29.40;;;;;;;;;;5054362;28;20431;-63
2021/12/03 03:26:41;;;;;;;43.17;23.40;;;;;;;;;;5052935;28;20029;-63
2021/12/03 03:29:08;;;;;;;97.80;48.58;;;;;;;;;;5053068;28;20021;-63
2021/12/03 03:31:35;;;;;;;92.50;44.63;;;;;;;;;;5053962;28;20028;-62
2021/12/03 03:34:02;;;;;;;101.47;47.00;;;;;;;;;;5054020;28;20406;-65
2021/12/03 03:36:28;;;;;;;84.82;45.97;;;;;;;;;;5053792;28;20500;-63
2021/12/03 03:38:54;;;;;;;94.45;45.90;;;;;;;;;;5053616;28;20032;-64
2021/12/03 03:41:20;;;;;;;94.28;47.55;;;;;;;;;;5052492;28;20025;-62
2021/12/03 03:43:46;;;;;;;100.10;44.05;;;;;;;;;;5054490;28;20678;-63
2021/12/03 03:46:12;;;;;;;90.20;45.38;;;;;;;;;;5053771;28;20035;-64
2021/12/03 03:48:38;;;;;;;99.82;46.92;;;;;;;;;;5053998;28;20021;-63
2021/12/03 03:51:04;;;;;;;75.68;37.63;;;;;;;;;;5052329;28;20021;-64
2021/12/03 03:53:30;;;;;;;68.32;36.47;;;;;;;;;;5052097;28;20055;-63
2021/12/03 03:55:56;;;;;;;90.07;45.35;;;;;;;;;;5052424;28;20029;-63
2021/12/03 03:58:22;;;;;;;78.32;38.40;;;;;;;;;;5052385;28;20039;-63
2021/12/03 04:00:48;;;;;;;65.85;34.67;;;;;;;;;;5053099;28;20094;-63
2021/12/03 04:03:14;;;;;;;81.78;46.08;;;;;;;;;;5053426;28;20056;-64
2021/12/03 04:05:40;;;;;;;96.03;44.45;;;;;;;;;;5051784;28;20036;-63
2021/12/03 04:08:07;;;;;;;81.18;41.83;;;;;;;;;;5053315;28;20393;-63
2021/12/03 04:10:33;;;;;;;86.00;43.30;;;;;;;;;;5053473;28;20164;-63
2021/12/03 04:12:59;;;;;;;102.45;49.58;;;;;;;;;;5051944;28;20044;-63
2021/12/03 04:15:25;;;;;;;93.88;46.20;;;;;;;;;;5051944;28;20098;-63
2021/12/03 04:17:51;;;;;;;90.28;45.15;;;;;;;;;;5052958;28;20028;-63
2021/12/03 04:20:19;;;;;;;74.05;31.00;;;;;;;;;;5051966;28;20036;-63
2021/12/03 04:22:45;;;;;;;82.53;43.65;;;;;;;;;;5051787;28;20063;-63
2021/12/03 04:25:15;;;;;;;71.75;32.90;;;;;;;;;;5053069;28;20031;-63
2021/12/03 04:27:42;;;;;;;75.53;34.17;;;;;;;;;;5051963;28;20120;-63
2021/12/03 04:30:09;;;;;;;96.55;49.17;;;;;;;;;;5051463;28;20032;-64
2021/12/03 04:32:36;;;;;;;88.85;41.30;;;;;;;;;;5051385;28;20021;-63
2021/12/03 04:35:02;;;;;;;76.07;37.53;;;;;;;;;;5051270;28;20087;-64
2021/12/03 04:37:28;;;;;;;74.70;36.47;;;;;;;;;;5052961;28;20033;-64
2021/12/03 04:39:54;;;;;;;83.18;37.13;;;;;;;;;;5052929;28;20374;-64
2021/12/03 04:42:20;;;;;;;87.60;40.75;;;;;;;;;;5052696;28;20083;-63
2021/12/03 04:44:46;;;;;;;48.42;21.85;;;;;;;;;;5051534;28;20033;-65
2021/12/03 04:47:12;;;;;;;95.05;44.22;;;;;;;;;;5052306;28;20024;-64
2021/12/03 04:49:38;;;;;;;88.20;43.00;;;;;;;;;;5051744;28;20017;-64
2021/12/03 04:52:05;;;;;;;98.05;46.10;;;;;;;;;;5052029;28;20037;-64
2021/12/03 04:54:31;;;;;;;62.78;31.20;;;;;;;;;;5051748;28;20469;-63
2021/12/03 04:56:57;;;;;;;77.20;38.50;;;;;;;;;;5052863;28;20040;-63
2021/12/03 04:59:23;;;;;;;80.20;32.58;;;;;;;;;;5053398;28;20021;-64
2021/12/03 05:01:53;;;;;;;64.38;32.78;;;;;;;;;;5051694;28;20223;-64
2021/12/03 05:04:19;;;;;;;57.35;28.23;;;;;;;;;;5053443;28;20112;-64
2021/12/03 05:07:04;;;;;;;86.40;38.53;;;;;;;;;;5052114;28;20057;-64
2021/12/03 05:09:30;;;;;;;67.47;31.67;;;;;;;;;;5051665;28;20025;-64
2021/12/03 05:11:56;;;;;;;72.20;34.35;;;;;;;;;;5052339;28;20023;-64
2021/12/03 05:14:22;;;;;;;82.03;33.53;;;;;;;;;;5051060;28;20388;-63
2021/12/03 05:16:48;;;;;;;69.50;32.08;;;;;;;;;;5050833;28;20091;-63
2021/12/03 05:19:15;;;;;;;78.97;30.00;;;;;;;;;;5052347;28;20029;-63
2021/12/03 05:21:42;;;;;;;89.70;39.05;;;;;;;;;;5050748;28;20079;-64
2021/12/03 05:24:08;;;;;;;81.97;35.22;;;;;;;;;;5051185;28;20049;-64
2021/12/03 05:26:35;;;;;;;79.90;34.92;;;;;;;;;;5050644;28;20033;-63
2021/12/03 05:29:01;;;;;;;77.90;34.75;;;;;;;;;;5052411;28;20104;-65
2021/12/03 05:31:27;;;;;;;96.30;38.80;;;;;;;;;;5050919;28;20052;-64
2021/12/03 05:33:53;;;;;;;78.00;37.33;;;;;;;;;;5050556;28;20017;-64
2021/12/03 05:36:19;;;;;;;78.45;34.92;;;;;;;;;;5051779;28;20033;-64
2021/12/03 05:38:45;;;;;;;92.63;33.22;;;;;;;;;;5051968;28;20055;-64
2021/12/03 05:41:11;;;;;;;94.18;39.03;;;;;;;;;;5050674;28;20032;-64
2021/12/03 05:43:37;;;;;;;72.72;34.42;;;;;;;;;;5050228;28;20029;-64
2021/12/03 05:46:03;;;;;;;105.95;46.55;;;;;;;;;;5051429;28;20112;-64
2021/12/03 05:48:29;;;;;;;73.70;31.05;;;;;;;;;;5051631;28;20093;-64
2021/12/03 05:50:55;;;;;;;96.38;37.75;;;;;;;;;;5050672;28;20124;-64
2021/12/03 05:53:21;;;;;;;92.13;40.70;;;;;;;;;;5050301;28;20112;-64
2021/12/03 05:55:47;;;;;;;88.07;35.20;;;;;;;;;;5051722;28;20044;-64
2021/12/03 05:58:15;;;;;;;87.70;38.55;;;;;;;;;;5051998;28;20084;-64
2021/12/03 06:00:42;;;;;;;82.20;35.88;;;;;;;;;;5051933;28;20491;-64
2021/12/03 06:03:08;;;;;;;68.70;32.50;;;;;;;;;;5052954;28;20025;-65
2021/12/03 06:05:35;;;;;;;70.57;32.92;;;;;;;;;;5055180;28;20418;-65
2021/12/03 06:08:01;;;;;;;69.47;30.33;;;;;;;;;;5055619;28;20017;-64
2021/12/03 06:10:28;;;;;;;81.07;37.38;;;;;;;;;;5055523;28;20438;-64
2021/12/03 06:12:54;;;;;;;67.75;28.55;;;;;;;;;;5055190;28;20492;-63
2021/12/03 06:15:20;;;;;;;71.75;29.20;;;;;;;;;;5053974;28;20036;-64
2021/12/03 06:17:46;;;;;;;86.88;39.13;;;;;;;;;;5053786;28;20455;-63
2021/12/03 06:20:12;;;;;;;87.20;39.35;;;;;;;;;;5053992;28;20029;-64
2021/12/03 06:22:39;;;;;;;81.00;35.10;;;;;;;;;;5053777;28;20120;-64
2021/12/03 06:25:06;;;;;;;63.72;29.40;;;;;;;;;;5053860;28;20025;-63
2021/12/03 06:27:32;;;;;;;86.32;35.25;;;;;;;;;;5053804;28;20084;-64
2021/12/03 06:29:59;;;;;;;84.88;37.97;;;;;;;;;;5055229;28;20029;-63
2021/12/03 06:32:25;;;;;;;86.00;36.33;;;;;;;;;;5054716;28;20420;-64
2021/12/03 06:34:52;;;;;;;80.80;35.45;;;;;;;;;;5053393;28;20025;-63
2021/12/03 06:37:18;;;;;;;89.63;39.92;;;;;;;;;;5054077;22;20056;-66
2021/12/03 06:39:44;;;;;;;76.75;38.08;;;;;;;;;;5034484;28;20470;-66
2021/12/03 06:42:10;;;;;;;78.82;33.90;;;;;;;;;;5034396;28;20068;-67
2021/12/03 06:44:36;;;;;;;77.75;34.92;;;;;;;;;;5033502;28;20418;-66
2021/12/03 06:47:03;;;;;;;61.92;27.52;;;;;;;;;;5030153;28;20078;-67
2021/12/03 06:49:30;;;;;;;70.80;31.98;;;;;;;;;;5033950;28;20030;-65
2021/12/03 06:52:05;;;;;;;84.68;41.38;;;;;;;;;;5032960;28;20025;-66
2021/12/03 06:54:33;;;;;;;87.63;38.75;;;;;;;;;;5026438;28;20018;-66
2021/12/03 06:57:00;;;;;;;75.30;31.70;;;;;;;;;;5013833;28;20030;-68
2021/12/03 06:59:26;;;;;;;69.88;27.73;;;;;;;;;;5016056;28;20053;-67
2021/12/03 07:01:52;;;;;;;63.55;28.55;;;;;;;;;;5014987;28;20037;-66
2021/12/03 07:04:19;;;;;;;71.15;30.80;;;;;;;;;;5032155;28;20029;-66
2021/12/03 07:06:45;;;;;;;75.22;34.17;;;;;;;;;;5033666;28;20076;-66
2021/12/03 07:09:11;;;;;;;79.70;37.35;;;;;;;;;;5033685;28;20029;-66
2021/12/03 07:11:37;;;;;;;67.32;28.55;;;;;;;;;;5033602;28;20028;-66
2021/12/03 07:14:03;;;;;;;65.18;30.95;;;;;;;;;;5035322;28;20029;-67
2021/12/03 07:16:29;;;;;;;51.45;26.10;;;;;;;;;;5036115;28;20036;-66
2021/12/03 07:18:55;;;;;;;65.35;31.92;;;;;;;;;;5035997;28;20047;-66
2021/12/03 07:21:22;;;;;;;71.32;32.45;;;;;;;;;;5017079;28;20486;-67
2021/12/03 07:23:50;;;;;;;67.50;30.42;;;;;;;;;;5014416;28;20087;-67
2021/12/03 07:26:16;;;;;;;75.63;32.92;;;;;;;;;;5016689;28;20440;-67
2021/12/03 07:28:43;;;;;;;68.57;30.08;;;;;;;;;;5026033;28;20048;-65
2021/12/03 07:31:09;;;;;;;77.40;34.75;;;;;;;;;;5034131;28;20330;-66
2021/12/03 07:33:35;;;;;;;67.05;30.75;;;;;;;;;;5032231;28;20025;-65
2021/12/03 07:36:02;;;;;;;60.10;23.83;;;;;;;;;;5032593;28;20474;-67
2021/12/03 07:38:28;;;;;;;61.03;29.92;;;;;;;;;;5032682;28;20061;-66
2021/12/03 07:40:54;;;;;;;70.05;32.58;;;;;;;;;;5032661;28;20029;-67
2021/12/03 07:43:20;;;;;;;63.97;31.02;;;;;;;;;;5031961;28;20021;-66
2021/12/03 07:45:47;;;;;;;57.53;28.35;;;;;;;;;;5028907;28;20037;-67
2021/12/03 07:48:13;;;;;;;70.93;34.78;;;;;;;;;;5025310;28;20028;-67
2021/12/03 07:50:41;;;;;;;64.43;33.05;;;;;;;;;;5013496;28;20026;-66
2021/12/03 07:53:08;;;;;;;68.40;33.73;;;;;;;;;;5012047;28;20021;-66
2021/12/03 07:55:36;;;;;;;72.35;36.47;;;;;;;;;;5013602;28;20465;-67
2021/12/03 07:58:04;;;;;;;70.82;35.42;;;;;;;;;;5013570;28;20429;-67
2021/12/03 08:00:30;;;;;;;71.90;32.27;;;;;;;;;;5014208;28;20046;-68
2021/12/03 08:02:56;;;;;;;81.85;35.95;;;;;;;;;;5013377;28;20319;-67
2021/12/03 08:05:23;;;;;;;56.10;25.88;;;;;;;;;;5013273;28;20462;-65
2021/12/03 08:07:50;;;;;;;58.35;29.60;;;;;;;;;;5012342;28;20048;-66
2021/12/03 08:10:16;;;;;;;54.92;26.15;;;;;;;;;;5012450;28;20176;-65
2021/12/03 08:12:44;;;;;;;71.72;36.53;;;;;;;;;;5013317;28;20030;-67
2021/12/03 08:15:10;;;;;;;57.33;25.85;;;;;;;;;;5013729;28;20159;-67
2021/12/03 08:17:36;;;;;;;52.75;25.48;;;;;;;;;;5013047;28;20048;-66
2021/12/03 08:20:03;;;;;;;53.95;24.25;;;;;;;;;;5011873;28;20036;-65
2021/12/03 08:22:29;;;;;;;50.97;23.38;;;;;;;;;;5011890;28;20022;-66
2021/12/03 08:24:55;;;;;;;60.45;29.88;;;;;;;;;;5011586;28;20084;-67
2021/12/03 08:27:21;;;;;;;58.08;29.35;;;;;;;;;;5013576;28;20030;-66
2021/12/03 08:29:47;;;;;;;62.22;34.30;;;;;;;;;;5012736;28;20049;-67
2021/12/03 08:32:13;;;;;;;83.35;37.83;;;;;;;;;;5012700;28;20359;-67
2021/12/03 08:34:39;;;;;;;54.22;27.27;;;;;;;;;;5013497;28;20033;-67
2021/12/03 08:37:09;;;;;;;51.85;26.70;;;;;;;;;;5012878;28;20042;-67
2021/12/03 08:39:36;;;;;;;61.58;31.90;;;;;;;;;;5011734;28;20118;-66
2021/12/03 08:42:03;;;;;;;63.75;28.75;;;;;;;;;;5011745;28;20072;-67
2021/12/03 08:44:29;;;;;;;71.30;32.30;;;;;;;;;;5013217;28;20429;-67
2021/12/03 08:47:02;;;;;;;55.97;29.38;;;;;;;;;;5018721;28;20497;-68
2021/12/03 08:49:44;;;;;;;55.05;28.75;;;;;;;;;;5031387;28;20032;-67
2021/12/03 08:52:25;;;;;;;61.78;29.13;;;;;;;;;;5032733;28;20018;-68
2021/12/03 08:54:55;;;;;;;62.97;26.60;;;;;;;;;;5031847;28;20025;-67
2021/12/03 08:57:31;;;;;;;66.32;28.25;;;;;;;;;;5032844;28;20022;-66
2021/12/03 09:00:00;;;;;;;70.88;31.60;;;;;;;;;;5032978;28;20029;-67
2021/12/03 09:02:26;;;;;;;47.80;23.85;;;;;;;;;;5031076;28;20029;-67
2021/12/03 09:04:52;;;;;;;58.45;29.23;;;;;;;;;;5030962;28;20454;-67
2021/12/03 09:07:18;;;;;;;58.75;29.85;;;;;;;;;;5027664;28;20084;-67
2021/12/03 09:09:44;;;;;;;69.97;31.42;;;;;;;;;;5029285;28;20397;-67
2021/12/03 09:12:11;;;;;;;58.20;29.90;;;;;;;;;;5030688;28;20201;-67
2021/12/03 09:14:52;;;;;;;53.47;26.75;;;;;;;;;;5032184;28;20025;-69
2021/12/03 09:17:29;;;;;;;51.65;27.85;;;;;;;;;;5030960;28;20032;-68
2021/12/03 09:22:52;;;;;;;62.58;30.02;;;;;;;;;;5032084;28;20040;-66
2021/12/03 09:25:23;;;;;;;42.08;22.20;;;;;;;;;;5030497;28;20036;-65
2021/12/03 09:27:49;;;;;;;63.42;29.60;;;;;;;;;;5032712;28;20020;-66
2021/12/03 09:30:15;;;;;;;45.92;21.90;;;;;;;;;;5032061;28;20049;-65
2021/12/03 09:32:46;;;;;;;55.00;26.00;;;;;;;;;;5030518;28;20022;-66
2021/12/03 09:35:12;;;;;;;41.05;21.98;;;;;;;;;;5030872;28;20448;-65
2021/12/03 09:37:38;;;;;;;39.97;21.58;;;;;;;;;;5034244;28;20041;-66
2021/12/03 09:40:08;;;;;;;41.63;19.83;;;;;;;;;;5035008;28;20032;-65
2021/12/03 09:42:37;;;;;;;37.53;16.80;;;;;;;;;;5035886;28;20100;-66
2021/12/03 09:45:04;;;;;;;45.30;21.48;;;;;;;;;;5035942;28;20079;-66
2021/12/03 09:47:30;;;;;;;33.33;16.17;;;;;;;;;;5035068;28;20021;-68
2021/12/03 09:49:57;;;;;;;29.63;14.73;;;;;;;;;;5036326;28;20034;-68
2021/12/03 09:52:35;;;;;;;37.85;13.65;;;;;;;;;;5036631;28;20022;-70
2021/12/03 09:55:06;;;;;;;28.83;13.15;;;;;;;;;;5037897;28;20018;-66
2021/12/03 10:11:51;;;;;;;32.80;14.38;;;;;;;;;;5032533;28;20035;-65
2021/12/03 10:14:35;;;;;;;27.15;13.10;;;;;;;;;;5020219;28;20029;-65
2021/12/03 10:23:24;;;;;;;25.52;11.93;;;;;;;;;;5012776;28;20037;-67
2021/12/03 10:46:42;;;;;;;17.90;9.05;;;;;;;;;;5035345;28;20036;-68
2021/12/03 10:51:54;;;;;;;39.63;8.60;;;;;;;;;;5035142;28;19909;-69
2021/12/03 10:59:53;;;;;;;17.25;7.90;;;;;;;;;;5035307;28;20037;-68
2021/12/03 11:03:01;;;;;;;;;;;;;;;;;;;;;
2021/12/03 11:25:20;;;;;;;18.95;7.72;;;;;;;;;;5034515;28;20040;-67
2021/12/03 12:07:39;;;;;;;37.35;9.68;;;;;;;;;;5010541;28;20037;-68
2021/12/03 12:18:20;;;;;;;17.15;7.93;;;;;;;;;;5032264;28;20037;-68
2021/12/03 13:06:41;;;;;;;17.08;6.25;;;;;;;;;;5088457;28;20071;-64
2021/12/03 14:40:31;;;;;;;18.45;7.20;;;;;;;;;;5058926;28;20029;-65
2021/12/03 14:43:10;;;;;;;16.83;7.70;;;;;;;;;;5059876;28;20487;-66
2021/12/03 14:56:39;;;;;;;16.83;7.82;;;;;;;;;;5070354;28;20021;-63
2021/12/03 14:59:11;;;;;;;16.58;7.68;;;;;;;;;;5070366;28;20642;-63
2021/12/03 15:01:47;;;;;;;22.08;7.38;;;;;;;;;;5069496;28;20036;-62
2021/12/03 15:04:40;;;;;;;15.15;7.30;;;;;;;;;;5069401;28;20103;-62
2021/12/03 15:09:43;;;;;;;16.80;7.28;;;;;;;;;;5070363;28;20416;-63
2021/12/03 15:33:25;;;;;;;;;;;;;;;;;;;;;
2021/12/03 15:35:56;;;;;;;;;;;;;;;;;;;;;
2021/12/03 15:38:33;;;;;;;14.73;6.70;;;;;;;;;;5069947;28;20036;-61
2021/12/03 16:53:38;;;;;;;19.10;12.40;;;;;;;;;;5068609;28;20105;-63
2021/12/03 16:56:11;;;;;;;24.52;13.70;;;;;;;;;;5065023;28;20104;-64
2021/12/03 16:58:38;;;;;;;21.73;14.43;;;;;;;;;;5067672;28;20064;-64
2021/12/03 17:01:09;;;;;;;25.65;16.63;;;;;;;;;;5061983;28;20035;-63
2021/12/03 17:03:59;;;;;;;24.65;16.27;;;;;;;;;;5068701;28;20022;-64
2021/12/03 18:01:24;;;;;;;19.25;9.98;;;;;;;;;;5020458;28;20116;-64
2021/12/03 18:08:57;;;;;;;18.92;9.90;;;;;;;;;;5071583;28;20086;-64
2021/12/03 18:56:21;;;;;;;19.30;9.45;;;;;;;;;;5031299;28;20394;-70
2021/12/03 18:58:53;;;;;;;18.95;8.95;;;;;;;;;;5013633;28;20033;-69
2021/12/03 19:01:19;;;;;;;18.20;8.48;;;;;;;;;;5013777;28;20453;-67
2021/12/03 19:04:13;;;;;;;15.85;7.45;;;;;;;;;;5032357;28;20032;-68
2021/12/03 19:07:02;;;;;;;20.65;7.38;;;;;;;;;;5014545;28;20022;-69
2021/12/03 19:09:33;;;;;;;19.02;7.90;;;;;;;;;;4675682;28;10000558;-66
2021/12/03 19:12:08;;;;;;;19.65;9.80;;;;;;;;;;5048628;28;20021;-64
2021/12/03 19:14:37;;;;;;;20.35;7.80;;;;;;;;;;5045383;28;20032;-64
2021/12/03 19:17:08;;;;;;;19.20;8.43;;;;;;;;;;5048710;28;20392;-63
2021/12/03 19:19:40;;;;;;;19.42;8.40;;;;;;;;;;5042156;28;20517;-66
2021/12/03 19:22:06;;;;;;;18.75;7.80;;;;;;;;;;5028635;28;20456;-66
2021/12/03 19:24:32;;;;;;;18.10;7.80;;;;;;;;;;5029012;28;20744;-63
2021/12/03 19:26:58;;;;;;;16.50;7.45;;;;;;;;;;5028945;28;20013;-63
2021/12/03 19:29:24;;;;;;;19.08;8.80;;;;;;;;;;5029135;28;20099;-61
2021/12/03 19:31:51;;;;;;;18.55;7.85;;;;;;;;;;5010390;28;20191;-64
2021/12/03 19:34:19;;;;;;;20.15;6.72;;;;;;;;;;5027943;28;20104;-62
2021/12/03 19:36:46;;;;;;;19.73;8.02;;;;;;;;;;5033820;28;20068;-64
2021/12/03 19:39:14;;;;;;;19.65;7.65;;;;;;;;;;5033938;28;20040;-64
2021/12/03 19:41:47;;;;;;;18.10;7.65;;;4.20;99.90;;;;;;5011412;28;20045;-64
2021/12/03 19:44:19;;;;;;;17.20;8.00;;;;;;;;;;5042188;28;20021;-65
2021/12/03 19:46:48;;;;;;;16.67;6.75;;;;;;;;;;5045407;28;20027;-64
2021/12/03 19:51:57;;;;;;;17.50;7.60;;;;;;;;;;5028729;28;20033;-64
2021/12/03 19:54:23;;;;;;;17.92;8.77;;;;;;;;;;5028766;28;20065;-65
2021/12/03 19:56:50;;;;;;;17.35;7.50;;;;;;;;;;5038485;28;20473;-65
2021/12/03 19:59:17;;;;;;;18.40;7.68;;;;;;;;;;5039219;28;20025;-63
2021/12/03 20:01:47;;;;;;;17.13;6.93;;;;;;;;;;5047582;28;20092;-64
2021/12/03 20:04:13;;;;;;;17.48;7.38;;;;;;;;;;5048004;28;20029;-62
2021/12/03 20:06:44;;;;;;;18.70;8.52;;;;;;;;;;5030314;28;20025;-64
2021/12/03 20:09:23;;;;;;;16.27;7.30;;;;;;;;;;5048306;28;20020;-64
2021/12/03 20:11:55;;;;;;;20.55;7.80;;;;;;;;;;5047935;28;20399;-63
2021/12/03 20:14:22;;;;;;;17.60;7.90;;;;;;;;;;5030045;28;20029;-64
2021/12/03 20:16:56;;;;;;;19.48;7.43;;;;;;;;;;5030085;28;20060;-65
2021/12/03 20:21:56;;;;;;;15.90;7.38;;;;;;;;;;5027992;28;20204;-64
2021/12/03 20:26:52;;;;;;;20.13;9.48;;;;;;;;;;5028090;28;20144;-64
2021/12/03 20:31:59;;;;;;;17.73;7.88;;;;;;;;;;5033609;28;20524;-64
2021/12/03 20:36:59;;;;;;;20.00;7.90;;;;;;;;;;5045397;28;20061;-63
2021/12/03 20:39:33;;;;;;;16.13;6.75;;;;;;;;;;5047039;28;20108;-64
2021/12/03 20:45:26;;;;;;;20.05;7.35;;;;;;;;;;4976183;28;20029;-65
2021/12/03 20:50:53;;;;;;;20.65;7.43;;;;;;;;;;5031417;28;20037;-63
2021/12/03 21:09:29;;;;;;;18.77;8.02;;;;;;;;;;5051343;28;20051;-64
2021/12/03 21:11:59;;;;;;;13.07;5.85;;;;;;;;;;5051561;28;20646;-62
2021/12/03 21:14:29;;;;;;;16.80;7.22;;;;;;;;;;5051240;28;20070;-63
2021/12/03 21:17:37;;;;;;;19.25;7.93;;;;;;;;;;5051044;28;20098;-63
2021/12/03 21:19:58;;;;;;;17.70;7.45;;;;;;;;;;5047883;28;20029;-63
2021/12/03 21:22:29;;;;;;;16.27;6.93;;;;;;;;;;5050326;28;20036;-62
2021/12/03 21:24:59;;;;;;;17.63;7.30;;;;;;;;;;5050964;28;20082;-63
2021/12/03 21:27:34;;;;;;;17.70;7.43;;;;;;;;;;5051072;28;20083;-63
2021/12/03 21:43:15;;;;;;;18.75;8.15;;;;;;;;;;5050734;28;20132;-62
2021/12/03 21:45:41;;;;;;;16.08;7.13;;;;;;;;;;5047262;28;20029;-65
2021/12/03 21:48:08;;;;;;;17.73;8.05;;;;;;;;;;5050461;28;20076;-63
2021/12/03 21:50:34;;;;;;;18.90;8.00;;;;;;;;;;5050426;28;20024;-64
2021/12/03 21:53:02;;;;;;;21.02;8.30;;;;;;;;;;5050362;28;20025;-64
2021/12/03 21:55:29;;;;;;;18.58;7.93;;;;;;;;;;5032040;28;20033;-63
2021/12/03 21:57:55;;;;;;;18.10;8.88;;;;;;;;;;5043581;28;20071;-63
2021/12/03 22:00:21;;;;;;;20.25;10.20;;;;;;;;;;5039765;28;20025;-62
2021/12/03 22:02:47;;;;;;;19.27;9.60;;;;;;;;;;5038862;28;20039;-63
2021/12/03 22:05:13;;;;;;;21.90;10.20;;;;;;;;;;5023562;28;20117;-64
2021/12/03 22:07:39;;;;;;;25.08;11.40;;;;;;;;;;5040151;28;20029;-63
2021/12/03 22:10:06;;;;;;;22.58;11.27;;;;;;;;;;5040884;28;20013;-63
2021/12/03 22:12:32;;;;;;;20.70;9.65;;;;;;;;;;5040266;28;20121;-62
2021/12/03 22:15:01;;;;;;;19.70;9.50;;;;;;;;;;5038940;28;20025;-62
2021/12/03 22:17:27;;;;;;;21.73;10.55;;;;;;;;;;5039589;28;20071;-62
2021/12/03 22:19:53;;;;;;;21.15;10.30;;;;;;;;;;5043254;28;20017;-63
2021/12/03 22:22:18;;;;;;;24.13;10.82;;;;;;;;;;5041364;28;20428;-62
2021/12/03 22:24:44;;;;;;;22.73;11.85;;;;;;;;;;5039182;28;20043;-63
2021/12/03 22:27:11;;;;;;;23.33;11.45;;;;;;;;;;4692176;28;10000416;-62
2021/12/03 22:29:37;;;;;;;22.80;11.63;;;;;;;;;;5031585;28;20055;-63
2021/12/03 22:32:04;;;;;;;24.15;11.65;;;;;;;;;;5049478;28;20056;-61
2021/12/03 22:34:30;;;;;;;23.75;12.20;;;;;;;;;;5031451;28;20500;-63
2021/12/03 22:36:56;;;;;;;24.83;12.20;;;;;;;;;;5018970;28;20086;-63
2021/12/03 22:39:23;;;;;;;25.33;12.90;;;;;;;;;;5029148;28;20435;-63
2021/12/03 22:41:51;;;;;;;25.10;12.65;;;;;;;;;;5029242;28;20134;-62
2021/12/03 22:44:17;;;;;;;;;;;;;;;;;;5029809;28;20018;-63
2021/12/03 22:52:10;;;;;;;25.27;12.40;;;;;;;;;;5028883;28;20045;-63
2021/12/03 22:54:46;;;;;;;25.17;12.15;;;;;;;;;;5029376;28;20397;-63
2021/12/03 22:57:21;;;;;;;20.75;10.35;;;;;;;;;;5029503;28;20105;-64
2021/12/03 22:59:48;;;;;;;20.45;9.65;;;;;;;;;;5011738;28;20079;-62
2021/12/03 23:02:15;;;;;;;26.20;13.23;;;;;;;;;;5029341;28;20031;-62
2021/12/03 23:04:42;;;;;;;24.93;12.70;;;;;;;;;;5011362;28;20053;-63
2021/12/03 23:07:09;;;;;;;21.33;10.80;;;;;;;;;;5028200;28;20072;-62
2021/12/03 23:09:35;;;;;;;22.85;10.15;;;;;;;;;;5028603;28;20025;-63